createdAt,value
2023-02-06T00:00:52.529Z,103841.56
2023-02-06T00:03:20.135Z,103846.25
2023-02-06T00:05:57.001Z,103838.84
2023-02-06T00:08:23.940Z,103845.94
2023-02-06T00:10:50.537Z,103851.13
2023-02-06T00:13:16.975Z,103846.41
2023-02-06T00:15:43.716Z,103845.03
2023-02-06T00:18:10.437Z,103842.00
2023-02-06T00:20:37.361Z,103844.44
2023-02-06T00:23:04.156Z,103837.03
2023-02-06T00:25:30.593Z,103838.97
2023-02-06T00:27:57.376Z,103840.59
2023-02-06T00:30:23.942Z,103832.69
2023-02-06T00:32:50.465Z,103838.16
2023-02-06T00:35:16.991Z,103839.00
2023-02-06T00:37:43.453Z,103829.41
2023-02-06T00:40:10.361Z,103825.56
2023-02-06T00:42:36.845Z,103834.59
2023-02-06T00:45:03.730Z,103831.59
2023-02-06T00:47:30.210Z,103836.22
2023-02-06T00:49:56.681Z,103823.41
2023-02-06T00:52:23.141Z,103829.13
2023-02-06T00:54:49.607Z,103813.50
2023-02-06T00:57:16.069Z,103813.75
2023-02-06T00:59:42.519Z,103815.66
2023-02-06T01:02:09.347Z,103817.00
2023-02-06T01:04:36.048Z,103812.13
2023-02-06T01:07:02.631Z,103813.50
2023-02-06T01:09:29.156Z,103814.84
2023-02-06T01:11:55.671Z,103812.13
2023-02-06T01:14:22.346Z,103829.88
2023-02-06T01:16:48.799Z,103821.94
2023-02-06T01:19:15.375Z,103834.50
2023-02-06T01:21:41.832Z,103834.25
2023-02-06T01:24:08.386Z,103837.25
2023-02-06T01:26:34.932Z,103839.19
2023-02-06T01:29:02.139Z,103832.31
2023-02-06T01:31:31.150Z,103843.81
2023-02-06T01:33:59.393Z,103844.34
2023-02-06T01:36:26.910Z,103832.56
2023-02-06T01:38:53.508Z,103834.97
2023-02-06T01:41:22.690Z,103825.66
2023-02-06T01:44:22.490Z,103828.09
2023-02-06T01:46:52.295Z,103833.53
2023-02-06T01:49:44.277Z,103831.91
2023-02-06T01:52:21.626Z,103819.63
2023-02-06T01:54:59.432Z,103826.13
2023-02-06T01:57:27.265Z,103828.09
2023-02-06T02:00:00.981Z,103834.34
2023-02-06T02:02:29.077Z,103836.00
2023-02-06T02:04:57.228Z,103843.09
2023-02-06T02:07:27.335Z,103834.84
2023-02-06T02:09:53.896Z,103828.22
2023-02-06T02:12:20.865Z,103821.63
2023-02-06T02:14:50.033Z,103822.69
2023-02-06T02:17:49.910Z,103825.13
2023-02-06T02:20:31.444Z,103832.50
2023-02-06T02:23:13.389Z,103824.38
2023-02-06T02:25:49.110Z,103827.63
2023-02-06T02:28:24.788Z,103830.63
2023-02-06T02:31:03.403Z,103826.78
2023-02-06T02:33:48.709Z,103830.34
2023-02-06T02:36:38.429Z,103827.84
2023-02-06T02:39:35.692Z,103830.09
2023-02-06T02:42:19.817Z,103832.56
2023-02-06T02:44:46.257Z,103833.38
2023-02-06T02:47:15.383Z,103834.19
2023-02-06T02:49:44.860Z,103828.19
2023-02-06T02:52:12.459Z,103819.94
2023-02-06T02:54:39.014Z,103810.06
2023-02-06T02:57:14.679Z,103803.47
2023-02-06T02:59:45.918Z,103814.69
2023-02-06T03:02:24.903Z,103812.53
2023-02-06T03:05:01.695Z,103808.44
2023-02-06T03:08:01.651Z,103805.13
2023-02-06T03:10:34.288Z,103813.81
2023-02-06T03:13:06.858Z,103808.63
2023-02-06T03:15:49.014Z,103807.53
2023-02-06T03:18:49.128Z,103808.09
2023-02-06T03:21:19.596Z,103799.34
2023-02-06T03:23:49.127Z,103802.34
2023-02-06T03:26:19.933Z,103796.63
2023-02-06T03:28:55.336Z,103805.06
2023-02-06T03:31:39.969Z,103809.19
2023-02-06T03:34:12.756Z,103808.94
2023-02-06T03:36:39.520Z,103801.53
2023-02-06T03:39:06.228Z,103816.56
2023-02-06T03:41:36.902Z,103810.25
2023-02-06T03:44:06.925Z,103819.78
2023-02-06T03:46:36.679Z,103810.94
2023-02-06T03:49:07.409Z,103806.50
2023-02-06T03:51:40.897Z,103802.16
2023-02-06T03:54:09.298Z,103811.97
2023-02-06T03:56:44.588Z,103807.84
2023-02-06T03:59:11.321Z,103812.22
2023-02-06T04:01:45.301Z,103819.88
2023-02-06T04:04:15.413Z,103830.78
2023-02-06T04:06:42.507Z,103825.16
2023-02-06T04:09:08.992Z,103826.44
2023-02-06T04:11:35.465Z,103817.94
2023-02-06T04:14:01.924Z,103818.16
2023-02-06T04:16:28.815Z,103811.78
2023-02-06T04:18:55.432Z,103804.06
2023-02-06T04:21:21.985Z,103812.56
2023-02-06T04:23:48.452Z,103816.97
2023-02-06T04:26:14.938Z,103824.69
2023-02-06T04:28:41.400Z,103828.28
2023-02-06T04:31:07.989Z,103831.03
2023-02-06T04:33:34.529Z,103834.84
2023-02-06T04:36:00.991Z,103840.84
2023-02-06T04:38:27.532Z,103844.16
2023-02-06T04:40:54.002Z,103843.31
2023-02-06T04:43:20.531Z,103845.53
2023-02-06T04:45:47.001Z,103851.56
2023-02-06T04:48:13.484Z,103859.75
2023-02-06T04:50:39.960Z,103853.75
2023-02-06T04:53:06.493Z,103860.28
2023-02-06T04:55:35.288Z,103852.16
2023-02-06T04:58:01.905Z,103852.69
2023-02-06T05:00:28.340Z,103852.94
2023-02-06T05:02:54.841Z,103856.78
2023-02-06T05:05:21.346Z,103864.22
2023-02-06T05:07:47.805Z,103858.78
2023-02-06T05:10:15.035Z,103855.50
2023-02-06T05:12:41.571Z,103837.53
2023-02-06T05:15:08.817Z,103831.81
2023-02-06T05:17:35.334Z,103837.78
2023-02-06T05:20:01.912Z,103850.59
2023-02-06T05:22:28.464Z,103833.66
2023-02-06T05:24:54.991Z,103835.00
2023-02-06T05:27:21.528Z,103829.50
2023-02-06T05:29:48.087Z,103828.13
2023-02-06T05:32:14.569Z,103821.59
2023-02-06T05:34:41.133Z,103826.25
2023-02-06T05:37:07.586Z,103810.41
2023-02-06T05:39:34.075Z,103816.38
2023-02-06T05:42:00.525Z,103817.16
2023-02-06T05:44:27.067Z,103818.25
2023-02-06T05:46:53.822Z,103816.34
2023-02-06T05:49:20.544Z,103821.28
2023-02-06T05:51:47.043Z,103810.06
2023-02-06T05:54:15.319Z,103807.56
2023-02-06T05:56:41.809Z,103805.03
2023-02-06T05:59:08.374Z,103809.94
2023-02-06T06:01:34.947Z,103809.19
2023-02-06T06:04:01.455Z,103798.56
2023-02-06T06:06:28.024Z,103808.78
2023-02-06T06:08:54.534Z,103809.56
2023-02-06T06:11:21.022Z,103814.69
2023-02-06T06:13:47.555Z,103816.91
2023-02-06T06:16:14.253Z,103803.00
2023-02-06T06:18:40.814Z,103803.59
2023-02-06T06:21:07.310Z,103796.75
2023-02-06T06:23:33.838Z,103812.66
2023-02-06T06:26:00.371Z,103814.25
2023-02-06T06:28:26.960Z,103811.00
2023-02-06T06:31:03.365Z,103817.50
2023-02-06T06:33:29.890Z,103817.50
2023-02-06T06:35:56.456Z,103816.72
2023-02-06T06:38:23.288Z,103816.47
2023-02-06T06:40:49.942Z,103813.72
2023-02-06T06:43:16.414Z,103804.13
2023-02-06T06:45:42.939Z,103799.81
2023-02-06T06:48:09.857Z,103805.03
2023-02-06T06:50:36.353Z,103802.88
2023-02-06T06:53:02.873Z,103805.63
2023-02-06T06:55:29.453Z,103802.56
2023-02-06T06:57:55.895Z,103805.03
2023-02-06T07:00:22.479Z,103803.69
2023-02-06T07:02:49.148Z,103808.53
2023-02-06T07:05:15.753Z,103806.38
2023-02-06T07:07:42.243Z,103818.09
2023-02-06T07:10:09.723Z,103811.59
2023-02-06T07:12:36.305Z,103808.50
2023-02-06T07:15:02.900Z,103802.81
2023-02-06T07:17:29.367Z,103798.63
2023-02-06T07:19:55.910Z,103804.09
2023-02-06T07:22:22.702Z,103803.00
2023-02-06T07:24:49.269Z,103800.00
2023-02-06T07:27:15.777Z,103813.31
2023-02-06T07:29:42.356Z,103817.38
2023-02-06T07:32:09.400Z,103816.91
2023-02-06T07:34:36.195Z,103809.28
2023-02-06T07:37:03.706Z,103817.50
2023-02-06T07:39:30.549Z,103815.59
2023-02-06T07:41:57.033Z,103809.91
2023-02-06T07:44:23.478Z,103812.19
2023-02-06T07:46:51.983Z,103810.06
2023-02-06T07:49:18.688Z,103807.88
2023-02-06T07:51:46.138Z,103812.25
2023-02-06T07:54:12.982Z,103816.13
2023-02-06T07:56:39.784Z,103814.00
2023-02-06T07:59:06.807Z,103821.44
2023-02-06T08:01:33.578Z,103818.19
2023-02-06T08:04:00.062Z,103810.25
2023-02-06T08:06:26.724Z,103812.47
2023-02-06T08:08:56.393Z,103800.97
2023-02-06T08:11:30.044Z,103814.13
2023-02-06T08:13:57.276Z,103824.56
2023-02-06T08:16:24.984Z,103818.84
2023-02-06T08:18:51.935Z,103825.16
2023-02-06T08:21:21.577Z,103822.94
2023-02-06T08:23:53.612Z,103812.22
2023-02-06T08:26:21.721Z,103801.03
2023-02-06T08:28:50.008Z,103802.66
2023-02-06T08:31:29.593Z,103805.66
2023-02-06T08:33:56.551Z,103805.72
2023-02-06T08:36:24.339Z,103799.22
2023-02-06T08:38:51.498Z,103807.41
2023-02-06T08:41:24.628Z,103807.13
2023-02-06T08:43:53.290Z,103811.81
2023-02-06T08:46:21.809Z,103812.69
2023-02-06T08:48:48.438Z,103811.09
2023-02-06T08:51:15.509Z,103807.03
2023-02-06T08:53:42.133Z,103812.81
2023-02-06T08:56:10.854Z,103810.91
2023-02-06T08:58:38.645Z,103814.47
2023-02-06T09:01:10.336Z,103820.78
2023-02-06T09:03:37.137Z,103817.75
2023-02-06T09:06:09.914Z,103812.31
2023-02-06T09:08:38.120Z,103813.16
2023-02-06T09:11:16.196Z,103821.34
2023-02-06T09:13:44.363Z,103820.50
2023-02-06T09:16:11.941Z,103821.38
2023-02-06T09:18:38.817Z,103819.72
2023-02-06T09:21:11.468Z,103817.25
2023-02-06T09:23:44.044Z,103809.59
2023-02-06T09:26:12.448Z,103815.63
2023-02-06T09:28:39.446Z,103818.38
2023-02-06T09:31:08.083Z,103814.25
2023-02-06T09:33:34.976Z,103829.31
2023-02-06T09:36:03.996Z,103823.84
2023-02-06T09:38:30.651Z,103822.22
2023-02-06T09:40:59.815Z,103834.00
2023-02-06T09:43:26.597Z,103823.56
2023-02-06T09:45:59.644Z,103828.19
2023-02-06T09:48:29.003Z,103832.31
2023-02-06T09:51:20.579Z,103836.97
2023-02-06T09:54:05.551Z,103832.03
2023-02-06T09:57:01.679Z,103837.50
2023-02-06T09:59:39.180Z,103843.53
2023-02-06T10:02:14.884Z,103847.88
2023-02-06T10:04:52.919Z,103836.91
2023-02-06T10:07:25.414Z,103846.22
2023-02-06T10:10:06.713Z,103837.97
2023-02-06T10:12:40.954Z,103825.59
2023-02-06T10:15:17.476Z,103828.56
2023-02-06T10:17:56.459Z,103830.16
2023-02-06T10:20:32.516Z,103818.28
2023-02-06T10:23:19.069Z,103816.91
2023-02-06T10:25:51.631Z,103825.66
2023-02-06T10:28:29.960Z,103830.31
2023-02-06T10:31:17.738Z,103821.03
2023-02-06T10:33:53.260Z,103813.06
2023-02-06T10:36:41.130Z,103811.41
2023-02-06T10:39:25.972Z,103808.88
2023-02-06T10:42:00.520Z,103803.13
2023-02-06T10:44:51.300Z,103808.03
2023-02-06T10:47:42.449Z,103806.38
2023-02-06T10:50:42.171Z,103797.56
2023-02-06T10:53:17.700Z,103789.91
2023-02-06T10:55:59.351Z,103778.22
2023-02-06T10:58:31.242Z,103766.69
2023-02-06T11:01:00.145Z,103768.00
2023-02-06T11:03:31.879Z,103774.78
2023-02-06T11:06:01.359Z,103762.31
2023-02-06T11:08:36.955Z,103761.38
2023-02-06T11:11:30.860Z,103773.41
2023-02-06T11:14:19.158Z,103762.91
2023-02-06T11:16:47.087Z,103769.31
2023-02-06T11:19:25.378Z,103763.69
2023-02-06T11:22:12.581Z,103770.19
2023-02-06T11:24:57.295Z,103767.34
2023-02-06T11:27:23.910Z,103758.16
2023-02-06T11:29:52.145Z,103755.59
2023-02-06T11:32:36.496Z,103753.91
2023-02-06T11:35:07.993Z,103749.72
2023-02-06T11:37:36.279Z,103748.31
2023-02-06T11:40:15.145Z,103746.03
2023-02-06T11:42:41.778Z,103754.22
2023-02-06T11:45:29.968Z,103761.94
2023-02-06T11:47:57.230Z,103752.22
2023-02-06T11:50:30.040Z,103736.56
2023-02-06T11:53:16.855Z,103758.47
2023-02-06T11:55:45.731Z,103753.81
2023-02-06T11:58:12.173Z,103747.16
2023-02-06T12:01:02.752Z,103746.81
2023-02-06T12:03:49.501Z,103729.84
2023-02-06T12:06:21.877Z,103735.75
2023-02-06T12:08:50.897Z,103740.06
2023-02-06T12:11:34.620Z,103750.94
2023-02-06T12:14:04.589Z,103746.50
2023-02-06T12:16:35.712Z,103752.09
2023-02-06T12:19:03.228Z,103740.81
2023-02-06T12:21:48.158Z,103762.00
2023-02-06T12:24:37.585Z,103761.63
2023-02-06T12:27:27.668Z,103748.72
2023-02-06T12:30:06.320Z,103741.28
2023-02-06T12:32:40.816Z,103735.41
2023-02-06T12:35:31.612Z,103737.88
2023-02-06T12:38:08.117Z,103731.97
2023-02-06T12:40:41.938Z,103730.50
2023-02-06T12:43:13.963Z,103731.81
2023-02-06T12:45:50.179Z,103725.72
2023-02-06T12:48:35.250Z,103719.34
2023-02-06T12:51:12.864Z,103711.59
2023-02-06T12:53:42.350Z,103708.88
2023-02-06T12:56:21.912Z,103696.28
2023-02-06T12:59:06.822Z,103697.84
2023-02-06T13:01:49.140Z,103694.19
2023-02-06T13:04:23.750Z,103682.06
2023-02-06T13:06:56.138Z,103683.19
2023-02-06T13:09:30.957Z,103688.38
2023-02-06T13:12:22.550Z,103695.38
2023-02-06T13:14:52.986Z,103688.00
2023-02-06T13:17:26.552Z,103690.88
2023-02-06T13:20:09.026Z,103692.50
2023-02-06T13:22:47.366Z,103690.78
2023-02-06T13:25:25.905Z,103692.81
2023-02-06T13:27:54.483Z,103686.38
2023-02-06T13:30:23.957Z,103685.06
2023-02-06T13:32:51.310Z,103679.44
2023-02-06T13:35:22.720Z,103679.25
2023-02-06T13:37:51.326Z,103678.59
2023-02-06T13:40:21.049Z,103676.97
2023-02-06T13:42:57.037Z,103663.44
2023-02-06T13:45:41.604Z,103676.50
2023-02-06T13:48:27.311Z,103676.69
2023-02-06T13:51:05.792Z,103683.09
2023-02-06T13:54:00.146Z,103683.63
2023-02-06T13:56:41.869Z,103687.28
2023-02-06T13:59:19.649Z,103675.13
2023-02-06T14:01:46.643Z,103675.97
2023-02-06T14:04:24.794Z,103662.91
2023-02-06T14:07:29.318Z,103661.06
2023-02-06T14:10:05.213Z,103666.56
2023-02-06T14:12:34.909Z,103661.59
2023-02-06T14:15:16.910Z,103668.22
2023-02-06T14:18:18.136Z,103662.06
2023-02-06T14:21:12.558Z,103673.91
2023-02-06T14:24:16.370Z,103667.19
2023-02-06T14:27:01.390Z,103672.72
2023-02-06T14:29:36.839Z,103665.34
2023-02-06T14:32:06.285Z,103663.72
2023-02-06T14:35:04.473Z,103654.44
2023-02-06T14:38:07.770Z,103659.22
2023-02-06T14:40:39.609Z,103657.09
2023-02-06T14:43:11.678Z,103660.03
2023-02-06T14:45:42.831Z,103651.78
2023-02-06T14:48:26.108Z,103662.19
2023-02-06T14:50:56.630Z,103659.00
2023-02-06T14:53:28.636Z,103663.13
2023-02-06T14:56:24.281Z,103657.38
2023-02-06T14:58:51.401Z,103671.28
2023-02-06T15:01:17.845Z,103678.63
2023-02-06T15:03:46.331Z,103684.13
2023-02-06T15:06:16.589Z,103683.63
2023-02-06T15:08:49.950Z,103686.59
2023-02-06T15:11:21.221Z,103686.78
2023-02-06T15:13:56.376Z,103673.00
2023-02-06T15:16:23.204Z,103667.19
2023-02-06T15:18:49.857Z,103667.78
2023-02-06T15:21:18.847Z,103658.72
2023-02-06T15:23:55.634Z,103639.81
2023-02-06T15:26:35.483Z,103655.97
2023-02-06T15:29:04.911Z,103655.44
2023-02-06T15:31:32.223Z,103647.00
2023-02-06T15:34:00.965Z,103658.63
2023-02-06T15:36:35.905Z,103649.53
2023-02-06T15:39:06.342Z,103645.97
2023-02-06T15:41:34.348Z,103645.44
2023-02-06T15:44:06.587Z,103640.56
2023-02-06T15:46:33.457Z,103643.31
2023-02-06T15:49:00.018Z,103639.63
2023-02-06T15:51:39.310Z,103640.88
2023-02-06T15:54:20.253Z,103630.75
2023-02-06T15:57:00.981Z,103628.81
2023-02-06T15:59:27.888Z,103631.25
2023-02-06T16:01:56.887Z,103635.75
2023-02-06T16:04:38.006Z,103630.13
2023-02-06T16:07:07.481Z,103627.19
2023-02-06T16:09:41.886Z,103636.97
2023-02-06T16:12:09.644Z,103640.41
2023-02-06T16:14:41.948Z,103636.63
2023-02-06T16:17:08.362Z,103643.66
2023-02-06T16:19:40.950Z,103641.28
2023-02-06T16:22:23.585Z,103649.69
2023-02-06T16:24:52.142Z,103639.38
2023-02-06T16:27:25.709Z,103634.47
2023-02-06T16:29:55.691Z,103629.56
2023-02-06T16:32:24.550Z,103624.19
2023-02-06T16:34:51.918Z,103614.38
2023-02-06T16:37:21.722Z,103618.53
2023-02-06T16:39:48.703Z,103616.16
2023-02-06T16:42:21.846Z,103627.53
2023-02-06T16:44:51.459Z,103614.16
2023-02-06T16:47:20.433Z,103613.41
2023-02-06T16:49:50.964Z,103606.38
2023-02-06T16:52:30.039Z,103611.44
2023-02-06T16:55:00.631Z,103617.28
2023-02-06T16:57:36.364Z,103614.09
2023-02-06T17:00:20.270Z,103621.31
2023-02-06T17:02:48.058Z,103625.19
2023-02-06T17:05:15.692Z,103623.00
2023-02-06T17:07:43.035Z,103624.41
2023-02-06T17:10:12.248Z,103625.81
2023-02-06T17:12:39.243Z,103631.88
2023-02-06T17:15:06.276Z,103634.09
2023-02-06T17:17:32.877Z,103634.09
2023-02-06T17:19:59.465Z,103630.00
2023-02-06T17:22:26.048Z,103622.72
2023-02-06T17:24:52.556Z,103625.75
2023-02-06T17:27:21.526Z,103627.69
2023-02-06T17:29:48.556Z,103619.50
2023-02-06T17:32:16.204Z,103628.03
2023-02-06T17:34:42.989Z,103624.78
2023-02-06T17:37:20.505Z,103625.38
2023-02-06T17:39:49.340Z,103628.41
2023-02-06T17:42:15.990Z,103633.94
2023-02-06T17:44:42.810Z,103629.94
2023-02-06T17:47:09.837Z,103623.97
2023-02-06T17:49:36.489Z,103631.13
2023-02-06T17:52:03.513Z,103627.13
2023-02-06T17:54:30.033Z,103629.91
2023-02-06T17:56:56.524Z,103625.06
2023-02-06T17:59:23.048Z,103627.56
2023-02-06T18:01:49.590Z,103616.94
2023-02-06T18:04:19.599Z,103618.63
2023-02-06T18:06:46.093Z,103631.25
2023-02-06T18:09:12.787Z,103629.16
2023-02-06T18:11:39.453Z,103635.22
2023-02-06T18:14:05.909Z,103640.97
2023-02-06T18:16:32.394Z,103631.69
2023-02-06T18:19:02.295Z,103628.72
2023-02-06T18:21:30.826Z,103630.06
2023-02-06T18:23:57.991Z,103625.16
2023-02-06T18:26:24.670Z,103622.69
2023-02-06T18:28:51.300Z,103613.94
2023-02-06T18:31:21.584Z,103613.34
2023-02-06T18:33:48.084Z,103627.34
2023-02-06T18:36:14.609Z,103619.69
2023-02-06T18:38:41.477Z,103621.94
2023-02-06T18:41:28.031Z,103626.63
2023-02-06T18:43:54.762Z,103636.53
2023-02-06T18:46:21.266Z,103629.75
2023-02-06T18:48:47.832Z,103634.94
2023-02-06T18:51:14.362Z,103636.06
2023-02-06T18:53:40.843Z,103642.69
2023-02-06T18:56:07.352Z,103634.47
2023-02-06T18:58:33.865Z,103638.31
2023-02-06T19:01:00.379Z,103631.78
2023-02-06T19:03:26.946Z,103638.06
2023-02-06T19:05:53.505Z,103642.75
2023-02-06T19:08:19.968Z,103635.09
2023-02-06T19:10:46.449Z,103640.34
2023-02-06T19:13:12.946Z,103637.34
2023-02-06T19:15:39.370Z,103634.66
2023-02-06T19:18:07.511Z,103640.97
2023-02-06T19:20:33.940Z,103637.19
2023-02-06T19:23:00.385Z,103640.50
2023-02-06T19:25:27.041Z,103632.06
2023-02-06T19:27:55.102Z,103632.06
2023-02-06T19:30:21.718Z,103634.00
2023-02-06T19:32:48.735Z,103638.66
2023-02-06T19:35:15.484Z,103639.78
2023-02-06T19:37:41.993Z,103647.19
2023-02-06T19:40:08.969Z,103653.78
2023-02-06T19:42:35.495Z,103631.63
2023-02-06T19:45:02.940Z,103634.38
2023-02-06T19:47:29.405Z,103645.88
2023-02-06T19:49:55.998Z,103639.34
2023-02-06T19:52:22.525Z,103646.44
2023-02-06T19:54:49.057Z,103647.00
2023-02-06T19:57:16.037Z,103645.94
2023-02-06T19:59:42.629Z,103641.59
2023-02-06T20:02:12.708Z,103641.91
2023-02-06T20:04:39.821Z,103656.94
2023-02-06T20:07:06.482Z,103658.06
2023-02-06T20:09:33.210Z,103658.31
2023-02-06T20:11:59.954Z,103667.34
2023-02-06T20:14:27.104Z,103667.34
2023-02-06T20:16:53.734Z,103665.44
2023-02-06T20:19:27.108Z,103664.34
2023-02-06T20:21:59.623Z,103668.47
2023-02-06T20:24:30.222Z,103663.53
2023-02-06T20:27:00.241Z,103661.91
2023-02-06T20:29:33.173Z,103670.38
2023-02-06T20:32:00.238Z,103666.81
2023-02-06T20:34:27.601Z,103677.75
2023-02-06T20:36:56.094Z,103667.34
2023-02-06T20:39:23.517Z,103680.22
2023-02-06T20:41:50.800Z,103680.75
2023-02-06T20:44:18.286Z,103677.75
2023-02-06T20:46:44.800Z,103679.38
2023-02-06T20:49:20.693Z,103682.13
2023-02-06T20:51:49.051Z,103687.59
2023-02-06T20:54:16.357Z,103685.41
2023-02-06T20:56:43.009Z,103680.75
2023-02-06T20:59:13.319Z,103687.03
2023-02-06T21:01:40.716Z,103680.47
2023-02-06T21:04:09.263Z,103678.56
2023-02-06T21:06:37.456Z,103675.00
2023-02-06T21:09:05.790Z,103655.84
2023-02-06T21:11:34.837Z,103653.13
2023-02-06T21:14:04.293Z,103658.06
2023-02-06T21:16:31.864Z,103655.59
2023-02-06T21:18:59.066Z,103662.97
2023-02-06T21:21:26.279Z,103667.34
2023-02-06T21:23:55.870Z,103660.25
2023-02-06T21:26:23.762Z,103662.97
2023-02-06T21:28:50.933Z,103651.47
2023-02-06T21:31:21.989Z,103656.41
2023-02-06T21:33:49.896Z,103655.88
2023-02-06T21:36:16.463Z,103659.44
2023-02-06T21:38:43.953Z,103652.84
2023-02-06T21:41:14.134Z,103657.50
2023-02-06T21:43:41.066Z,103651.47
2023-02-06T21:46:07.873Z,103652.03
2023-02-06T21:48:35.522Z,103657.50
2023-02-06T21:51:09.847Z,103655.03
2023-02-06T21:53:36.579Z,103650.66
2023-02-06T21:56:08.036Z,103656.66
2023-02-06T21:58:35.680Z,103655.84
2023-02-06T22:01:02.432Z,103650.06
2023-02-06T22:03:29.185Z,103661.78
2023-02-06T22:05:55.641Z,103666.19
2023-02-06T22:08:22.181Z,103654.41
2023-02-06T22:10:48.681Z,103660.13
2023-02-06T22:13:15.138Z,103649.19
2023-02-06T22:15:51.275Z,103656.00
2023-02-06T22:18:17.925Z,103640.44
2023-02-06T22:20:44.427Z,103642.09
2023-02-06T22:23:10.919Z,103642.88
2023-02-06T22:25:37.614Z,103632.53
2023-02-06T22:28:04.263Z,103638.53
2023-02-06T22:30:30.803Z,103630.59
2023-02-06T22:32:57.271Z,103641.25
2023-02-06T22:35:23.722Z,103638.22
2023-02-06T22:37:50.227Z,103636.84
2023-02-06T22:40:16.981Z,103640.16
2023-02-06T22:42:43.456Z,103633.56
2023-02-06T22:45:10.238Z,103647.19
2023-02-06T22:47:36.848Z,103657.03
2023-02-06T22:50:03.471Z,103662.22
2023-02-06T22:52:48.678Z,103664.09
2023-02-06T22:55:15.168Z,103660.53
2023-02-06T22:57:41.713Z,103655.91
2023-02-06T23:00:11.587Z,103655.34
2023-02-06T23:02:38.962Z,103657.81
2023-02-06T23:05:06.146Z,103666.25
2023-02-06T23:07:32.623Z,103665.19
2023-02-06T23:09:59.110Z,103641.97
2023-02-06T23:12:25.662Z,103642.28
2023-02-06T23:14:52.165Z,103641.69
2023-02-06T23:17:18.706Z,103639.78
2023-02-06T23:19:45.280Z,103638.13
2023-02-06T23:22:12.776Z,103641.97
2023-02-06T23:24:39.281Z,103631.56
2023-02-06T23:27:05.776Z,103629.41
2023-02-06T23:29:32.333Z,103629.94
2023-02-06T23:31:58.786Z,103630.47
2023-02-06T23:34:25.847Z,103635.34
2023-02-06T23:36:52.849Z,103651.72
2023-02-06T23:39:19.340Z,103644.31
2023-02-06T23:41:46.093Z,103630.38
2023-02-06T23:44:12.742Z,103623.00
2023-02-06T23:46:40.340Z,103635.81
2023-02-06T23:49:07.602Z,103637.19
2023-02-06T23:51:35.124Z,103642.03
2023-02-06T23:54:01.816Z,103642.84
2023-02-06T23:56:30.891Z,103628.66
2023-02-06T23:58:59.596Z,103645.31
